<?xml version="1.0" encoding="UTF-8" standalone="no" ?><gpx xmlns="http://www.topografix.com/GPX/1/1" xmlns:gpxx="http://www.garmin.com/xmlschemas/GpxExtensions/v3" xmlns:wptx1="http://www.garmin.com/xmlschemas/WaypointExtension/v1" xmlns:gpxtpx="http://www.garmin.com/xmlschemas/TrackPointExtension/v1" creator="Dakota 20" version="1.1" xmlns:xsi="http://www.w3.org/2001/XMLSchema-instance" xsi:schemaLocation="http://www.topografix.com/GPX/1/1 http://www.topografix.com/GPX/1/1/gpx.xsd http://www.garmin.com/xmlschemas/GpxExtensions/v3 http://www8.garmin.com/xmlschemas/GpxExtensionsv3.xsd http://www.garmin.com/xmlschemas/WaypointExtension/v1 http://www8.garmin.com/xmlschemas/WaypointExtensionv1.xsd http://www.garmin.com/xmlschemas/TrackPointExtension/v1 http://www.garmin.com/xmlschemas/TrackPointExtensionv1.xsd"><metadata><link href="http://www.garmin.com"><text>Garmin International</text></link><time>2015-08-05T14:34:31Z</time></metadata><trk><name>Current Track: 05 AUG 2015 09:57</name><extensions><gpxx:TrackExtension><gpxx:DisplayColor>Cyan</gpxx:DisplayColor></gpxx:TrackExtension></extensions><trkseg><trkpt lat="52.0324688125" lon="-2.0526611153"><ele>73.20</ele><time>2015-08-05T08:57:01Z</time></trkpt><trkpt lat="52.0324527193" lon="-2.0527241472"><ele>72.72</ele><time>2015-08-05T08:57:19Z</time></trkpt><trkpt lat="52.0325085428" lon="-2.0528107323"><ele>72.24</ele><time>2015-08-05T08:57:33Z</time></trkpt><trkpt lat="52.0326325111" lon="-2.0529574156"><ele>72.24</ele><time>2015-08-05T08:57:50Z</time></trkpt><trkpt lat="52.0327971317" lon="-2.0530305896"><ele>74.16</ele><time>2015-08-05T08:58:10Z</time></trkpt><trkpt lat="52.0330016501" lon="-2.0529548172"><ele>75.60</ele><time>2015-08-05T08:58:31Z</time></trkpt><trkpt lat="52.0332122035" lon="-2.0528764464"><ele>76.08</ele><time>2015-08-05T08:58:53Z</time></trkpt><trkpt lat="52.0333576296" lon="-2.0527877659"><ele>78.00</ele><time>2015-08-05T08:59:11Z</time></trkpt><trkpt lat="52.0333957672" lon="-2.0527640451"><ele>77.52</ele><time>2015-08-05T08:59:14Z</time></trkpt><trkpt lat="52.0334642474" lon="-2.0527297631"><ele>78.00</ele><time>2015-08-05T08:59:20Z</time></trkpt><trkpt lat="52.0335918199" lon="-2.0526430942"><ele>78.97</ele><time>2015-08-05T08:59:36Z</time></trkpt><trkpt lat="52.0336286165" lon="-2.0526017714"><ele>78.97</ele><time>2015-08-05T08:59:50Z</time></trkpt><trkpt lat="52.0337628946" lon="-2.0525132585"><ele>79.93</ele><time>2015-08-05T09:00:06Z</time></trkpt><trkpt lat="52.0339054707" lon="-2.0523938164"><ele>81.37</ele><time>2015-08-05T09:00:23Z</time></trkpt><trkpt lat="52.0340264216" lon="-2.0523283537"><ele>81.85</ele><time>2015-08-05T09:00:39Z</time></trkpt><trkpt lat="52.0341715962" lon="-2.0522789843"><ele>81.85</ele><time>2015-08-05T09:00:55Z</time></trkpt><trkpt lat="52.0343248174" lon="-2.0522637293"><ele>81.85</ele><time>2015-08-05T09:01:13Z</time></trkpt><trkpt lat="52.0345030166" lon="-2.0522519108"><ele>84.25</ele><time>2015-08-05T09:01:34Z</time></trkpt><trkpt lat="52.0346631948" lon="-2.0522224065"><ele>85.69</ele><time>2015-08-05T09:01:55Z</time></trkpt><trkpt lat="52.0347726624" lon="-2.0520975161"><ele>88.10</ele><time>2015-08-05T09:02:13Z</time></trkpt><trkpt lat="52.0349371992" lon="-2.0520944986"><ele>90.02</ele><time>2015-08-05T09:02:33Z</time></trkpt><trkpt lat="52.0349994767" lon="-2.0520656649"><ele>90.50</ele><time>2015-08-05T09:02:41Z</time></trkpt><trkpt lat="52.0350792725" lon="-2.0519494917"><ele>91.46</ele><time>2015-08-05T09:02:58Z</time></trkpt><trkpt lat="52.0351697970" lon="-2.0519072469"><ele>94.35</ele><time>2015-08-05T09:03:11Z</time></trkpt><trkpt lat="52.0352990460" lon="-2.0519331470"><ele>95.79</ele><time>2015-08-05T09:03:29Z</time></trkpt><trkpt lat="52.0354295522" lon="-2.0519175567"><ele>96.27</ele><time>2015-08-05T09:03:46Z</time></trkpt><trkpt lat="52.0354523510" lon="-2.0519184787"><ele>98.19</ele><time>2015-08-05T09:03:49Z</time></trkpt><trkpt lat="52.0355583820" lon="-2.0519231725"><ele>100.60</ele><time>2015-08-05T09:04:05Z</time></trkpt><trkpt lat="52.0356168039" lon="-2.0519270282"><ele>100.60</ele><time>2015-08-05T09:04:22Z</time></trkpt><trkpt lat="52.0356919896" lon="-2.0519333985"><ele>101.56</ele><time>2015-08-05T09:04:39Z</time></trkpt><trkpt lat="52.0358097553" lon="-2.0519516710"><ele>102.52</ele><time>2015-08-05T09:04:54Z</time></trkpt><trkpt lat="52.0359150320" lon="-2.0519398525"><ele>103.00</ele><time>2015-08-05T09:05:07Z</time></trkpt><trkpt lat="52.0359597076" lon="-2.0519210771"><ele>102.52</ele><time>2015-08-05T09:05:12Z</time></trkpt><trkpt lat="52.0360507350" lon="-2.0519102644"><ele>103.96</ele><time>2015-08-05T09:05:24Z</time></trkpt><trkpt lat="52.0361714344" lon="-2.0518628228"><ele>104.92</ele><time>2015-08-05T09:05:39Z</time></trkpt><trkpt lat="52.0362876914" lon="-2.0518513396"><ele>105.40</ele><time>2015-08-05T09:05:52Z</time></trkpt><trkpt lat="52.0363526512" lon="-2.0518480707"><ele>105.88</ele><time>2015-08-05T09:06:02Z</time></trkpt><trkpt lat="52.0363833290" lon="-2.0518215839"><ele>105.88</ele><time>2015-08-05T09:06:05Z</time></trkpt><trkpt lat="52.0364436787" lon="-2.0517831109"><ele>106.84</ele><time>2015-08-05T09:06:12Z</time></trkpt><trkpt lat="52.0365494583" lon="-2.0517089311"><ele>106.84</ele><time>2015-08-05T09:06:26Z</time></trkpt><trkpt lat="52.0366671402" lon="-2.0516589750"><ele>109.73</ele><time>2015-08-05T09:06:41Z</time></trkpt><trkpt lat="52.0368252229" lon="-2.0515859686"><ele>109.73</ele><time>2015-08-05T09:06:59Z</time></trkpt><trkpt lat="52.0369597524" lon="-2.0515221823"><ele>109.25</ele><time>2015-08-05T09:07:16Z</time></trkpt><trkpt lat="52.0370920189" lon="-2.0514587313"><ele>110.69</ele><time>2015-08-05T09:07:32Z</time></trkpt><trkpt lat="52.0372574776" lon="-2.0513752475"><ele>111.17</ele><time>2015-08-05T09:07:51Z</time></trkpt><trkpt lat="52.0374027360" lon="-2.0513012353"><ele>112.61</ele><time>2015-08-05T09:08:07Z</time></trkpt><trkpt lat="52.0375578012" lon="-2.0512310788"><ele>112.13</ele><time>2015-08-05T09:08:24Z</time></trkpt><trkpt lat="52.0376696158" lon="-2.0511701424"><ele>114.05</ele><time>2015-08-05T09:08:39Z</time></trkpt><trkpt lat="52.0377066638" lon="-2.0511552226"><ele>114.05</ele><time>2015-08-05T09:08:43Z</time></trkpt><trkpt lat="52.0378649142" lon="-2.0510931965"><ele>115.01</ele><time>2015-08-05T09:09:02Z</time></trkpt><trkpt lat="52.0379893854" lon="-2.0510399714"><ele>116.46</ele><time>2015-08-05T09:09:17Z</time></trkpt><trkpt lat="52.0381193049" lon="-2.0509797055"><ele>116.94</ele><time>2015-08-05T09:09:32Z</time></trkpt><trkpt lat="52.0382266771" lon="-2.0509228762"><ele>117.90</ele><time>2015-08-05T09:09:46Z</time></trkpt><trkpt lat="52.0383106638" lon="-2.0508545637"><ele>118.86</ele><time>2015-08-05T09:10:04Z</time></trkpt><trkpt lat="52.0383209735" lon="-2.0508048590"><ele>120.30</ele><time>2015-08-05T09:10:20Z</time></trkpt><trkpt lat="52.0383336302" lon="-2.0508286636"><ele>119.82</ele><time>2015-08-05T09:10:33Z</time></trkpt><trkpt lat="52.0383891184" lon="-2.0508330222"><ele>122.22</ele><time>2015-08-05T09:10:49Z</time></trkpt><trkpt lat="52.0383931417" lon="-2.0508672204"><ele>121.74</ele><time>2015-08-05T09:11:08Z</time></trkpt><trkpt lat="52.0384024456" lon="-2.0509455912"><ele>122.22</ele><time>2015-08-05T09:11:13Z</time></trkpt><trkpt lat="52.0384386554" lon="-2.0512057655"><ele>123.67</ele><time>2015-08-05T09:11:29Z</time></trkpt><trkpt lat="52.0384519827" lon="-2.0512900874"><ele>123.19</ele><time>2015-08-05T09:11:35Z</time></trkpt><trkpt lat="52.0384575985" lon="-2.0513441507"><ele>122.71</ele><time>2015-08-05T09:11:38Z</time></trkpt><trkpt lat="52.0384916291" lon="-2.0515772514"><ele>123.19</ele><time>2015-08-05T09:11:52Z</time></trkpt><trkpt lat="52.0385370590" lon="-2.0518111903"><ele>124.63</ele><time>2015-08-05T09:12:06Z</time></trkpt><trkpt lat="52.0385985821" lon="-2.0520035550"><ele>125.11</ele><time>2015-08-05T09:12:20Z</time></trkpt><trkpt lat="52.0386409946" lon="-2.0523131825"><ele>124.63</ele><time>2015-08-05T09:12:36Z</time></trkpt><trkpt lat="52.0386544056" lon="-2.0523658209"><ele>123.67</ele><time>2015-08-05T09:12:39Z</time></trkpt><trkpt lat="52.0387192816" lon="-2.0526990015"><ele>124.63</ele><time>2015-08-05T09:12:57Z</time></trkpt><trkpt lat="52.0387518033" lon="-2.0529208705"><ele>123.67</ele><time>2015-08-05T09:13:09Z</time></trkpt><trkpt lat="52.0387994964" lon="-2.0532200206"><ele>124.63</ele><time>2015-08-05T09:13:25Z</time></trkpt><trkpt lat="52.0388569962" lon="-2.0535071008"><ele>123.67</ele><time>2015-08-05T09:13:41Z</time></trkpt><trkpt lat="52.0388989057" lon="-2.0537541993"><ele>123.67</ele><time>2015-08-05T09:13:56Z</time></trkpt><trkpt lat="52.0389370434" lon="-2.0539974421"><ele>124.15</ele><time>2015-08-05T09:14:11Z</time></trkpt><trkpt lat="52.0389524661" lon="-2.0541665051"><ele>122.71</ele><time>2015-08-05T09:14:24Z</time></trkpt><trkpt lat="52.0389761869" lon="-2.0544125978"><ele>122.22</ele><time>2015-08-05T09:14:41Z</time></trkpt><trkpt lat="52.0390066132" lon="-2.0546585228"><ele>120.78</ele><time>2015-08-05T09:14:58Z</time></trkpt><trkpt lat="52.0390663762" lon="-2.0549493749"><ele>121.26</ele><time>2015-08-05T09:15:15Z</time></trkpt><trkpt lat="52.0390911028" lon="-2.0551947132"><ele>120.78</ele><time>2015-08-05T09:15:29Z</time></trkpt><trkpt lat="52.0391294081" lon="-2.0553786959"><ele>119.82</ele><time>2015-08-05T09:15:43Z</time></trkpt><trkpt lat="52.0391521230" lon="-2.0555298217"><ele>119.34</ele><time>2015-08-05T09:15:52Z</time></trkpt><trkpt lat="52.0391944516" lon="-2.0557506848"><ele>118.38</ele><time>2015-08-05T09:16:06Z</time></trkpt><trkpt lat="52.0392096229" lon="-2.0558468252"><ele>118.38</ele><time>2015-08-05T09:16:12Z</time></trkpt><trkpt lat="52.0392175857" lon="-2.0558967814"><ele>117.90</ele><time>2015-08-05T09:16:15Z</time></trkpt><trkpt lat="52.0392304100" lon="-2.0559906587"><ele>117.90</ele><time>2015-08-05T09:16:22Z</time></trkpt><trkpt lat="52.0392655302" lon="-2.0562817622"><ele>116.46</ele><time>2015-08-05T09:16:38Z</time></trkpt><trkpt lat="52.0392704755" lon="-2.0563294552"><ele>115.98</ele><time>2015-08-05T09:16:41Z</time></trkpt><trkpt lat="52.0392834675" lon="-2.0565380808"><ele>115.98</ele><time>2015-08-05T09:16:56Z</time></trkpt><trkpt lat="52.0393016562" lon="-2.0567630511"><ele>114.05</ele><time>2015-08-05T09:17:10Z</time></trkpt><trkpt lat="52.0393129718" lon="-2.0568457805"><ele>113.09</ele><time>2015-08-05T09:17:15Z</time></trkpt><trkpt lat="52.0393284783" lon="-2.0569969062"><ele>112.13</ele><time>2015-08-05T09:17:32Z</time></trkpt><trkpt lat="52.0393483434" lon="-2.0570541546"><ele>112.13</ele><time>2015-08-05T09:17:37Z</time></trkpt><trkpt lat="52.0393465832" lon="-2.0571268257"><ele>111.65</ele><time>2015-08-05T09:17:42Z</time></trkpt><trkpt lat="52.0393347647" lon="-2.0573624410"><ele>109.73</ele><time>2015-08-05T09:17:57Z</time></trkpt><trkpt lat="52.0393457450" lon="-2.0575783588"><ele>108.29</ele><time>2015-08-05T09:18:11Z</time></trkpt><trkpt lat="52.0393466670" lon="-2.0575906802"><ele>107.81</ele><time>2015-08-05T09:18:12Z</time></trkpt><trkpt lat="52.0393583179" lon="-2.0577235334"><ele>106.36</ele><time>2015-08-05T09:18:21Z</time></trkpt><trkpt lat="52.0393568091" lon="-2.0577801112"><ele>106.84</ele><time>2015-08-05T09:18:25Z</time></trkpt><trkpt lat="52.0393694658" lon="-2.0579172391"><ele>105.88</ele><time>2015-08-05T09:18:38Z</time></trkpt><trkpt lat="52.0393905882" lon="-2.0580464043"><ele>104.44</ele><time>2015-08-05T09:18:54Z</time></trkpt><trkpt lat="52.0393852238" lon="-2.0581112802"><ele>103.48</ele><time>2015-08-05T09:18:58Z</time></trkpt><trkpt lat="52.0393794402" lon="-2.0582377631"><ele>101.56</ele><time>2015-08-05T09:19:06Z</time></trkpt><trkpt lat="52.0393742435" lon="-2.0582994539"><ele>101.08</ele><time>2015-08-05T09:19:10Z</time></trkpt><trkpt lat="52.0393789373" lon="-2.0585291181"><ele>100.11</ele><time>2015-08-05T09:19:24Z</time></trkpt><trkpt lat="52.0393737406" lon="-2.0587021206"><ele>98.19</ele><time>2015-08-05T09:19:37Z</time></trkpt><trkpt lat="52.0392508619" lon="-2.0588777214"><ele>97.23</ele><time>2015-08-05T09:19:54Z</time></trkpt><trkpt lat="52.0392089523" lon="-2.0589055493"><ele>95.31</ele><time>2015-08-05T09:19:59Z</time></trkpt><trkpt lat="52.0391870756" lon="-2.0589244086"><ele>94.83</ele><time>2015-08-05T09:20:01Z</time></trkpt><trkpt lat="52.0390790328" lon="-2.0590400789"><ele>93.87</ele><time>2015-08-05T09:20:14Z</time></trkpt><trkpt lat="52.0389341936" lon="-2.0591730997"><ele>92.42</ele><time>2015-08-05T09:20:32Z</time></trkpt><trkpt lat="52.0388131589" lon="-2.0592605229"><ele>91.46</ele><time>2015-08-05T09:20:46Z</time></trkpt><trkpt lat="52.0386970695" lon="-2.0593891852"><ele>90.98</ele><time>2015-08-05T09:21:00Z</time></trkpt><trkpt lat="52.0386388991" lon="-2.0595118962"><ele>88.58</ele><time>2015-08-05T09:21:11Z</time></trkpt><trkpt lat="52.0387076307" lon="-2.0597161632"><ele>90.98</ele><time>2015-08-05T09:21:26Z</time></trkpt><trkpt lat="52.0387318544" lon="-2.0597574022"><ele>91.46</ele><time>2015-08-05T09:21:43Z</time></trkpt><trkpt lat="52.0387336146" lon="-2.0597567316"><ele>92.90</ele><time>2015-08-05T09:22:11Z</time></trkpt><trkpt lat="52.0387468580" lon="-2.0598128065"><ele>91.46</ele><time>2015-08-05T09:22:31Z</time></trkpt><trkpt lat="52.0388014242" lon="-2.0598789398"><ele>92.42</ele><time>2015-08-05T09:22:38Z</time></trkpt><trkpt lat="52.0388435852" lon="-2.0599132217"><ele>92.42</ele><time>2015-08-05T09:22:42Z</time></trkpt><trkpt lat="52.0388792921" lon="-2.0599420555"><ele>93.39</ele><time>2015-08-05T09:22:46Z</time></trkpt><trkpt lat="52.0389219560" lon="-2.0599967893"><ele>94.35</ele><time>2015-08-05T09:23:00Z</time></trkpt><trkpt lat="52.0390144922" lon="-2.0600059256"><ele>95.31</ele><time>2015-08-05T09:23:08Z</time></trkpt><trkpt lat="52.0392169990" lon="-2.0599771757"><ele>95.79</ele><time>2015-08-05T09:23:25Z</time></trkpt><trkpt lat="52.0393647719" lon="-2.0599486772"><ele>99.63</ele><time>2015-08-05T09:23:40Z</time></trkpt><trkpt lat="52.0394484233" lon="-2.0599355176"><ele>99.15</ele><time>2015-08-05T09:23:52Z</time></trkpt><trkpt lat="52.0395678654" lon="-2.0599039178"><ele>100.60</ele><time>2015-08-05T09:24:05Z</time></trkpt><trkpt lat="52.0397161413" lon="-2.0599026605"><ele>103.00</ele><time>2015-08-05T09:24:19Z</time></trkpt><trkpt lat="52.0398661774" lon="-2.0598753355"><ele>103.48</ele><time>2015-08-05T09:24:34Z</time></trkpt><trkpt lat="52.0399994496" lon="-2.0598652773"><ele>104.44</ele><time>2015-08-05T09:24:49Z</time></trkpt><trkpt lat="52.0401650760" lon="-2.0598367788"><ele>106.36</ele><time>2015-08-05T09:25:05Z</time></trkpt><trkpt lat="52.0402881224" lon="-2.0598229486"><ele>106.84</ele><time>2015-08-05T09:25:18Z</time></trkpt><trkpt lat="52.0403607097" lon="-2.0598289836"><ele>108.29</ele><time>2015-08-05T09:25:26Z</time></trkpt><trkpt lat="52.0405250788" lon="-2.0598297380"><ele>110.21</ele><time>2015-08-05T09:25:41Z</time></trkpt><trkpt lat="52.0406938903" lon="-2.0598466694"><ele>113.57</ele><time>2015-08-05T09:25:57Z</time></trkpt><trkpt lat="52.0407696627" lon="-2.0598610025"><ele>112.13</ele><time>2015-08-05T09:26:05Z</time></trkpt><trkpt lat="52.0408508833" lon="-2.0598879922"><ele>115.50</ele><time>2015-08-05T09:26:12Z</time></trkpt><trkpt lat="52.0409036055" lon="-2.0598981343"><ele>115.98</ele><time>2015-08-05T09:26:17Z</time></trkpt><trkpt lat="52.0409326907" lon="-2.0599197596"><ele>115.98</ele><time>2015-08-05T09:26:31Z</time></trkpt><trkpt lat="52.0409327745" lon="-2.0599236153"><ele>117.42</ele><time>2015-08-05T09:26:42Z</time></trkpt><trkpt lat="52.0409314334" lon="-2.0599245373"><ele>115.50</ele><time>2015-08-05T09:26:50Z</time></trkpt><trkpt lat="52.0409345347" lon="-2.0599236153"><ele>116.94</ele><time>2015-08-05T09:26:52Z</time></trkpt><trkpt lat="52.0409494545" lon="-2.0599267166"><ele>115.98</ele><time>2015-08-05T09:26:54Z</time></trkpt><trkpt lat="52.0410134923" lon="-2.0599459950"><ele>117.90</ele><time>2015-08-05T09:27:00Z</time></trkpt><trkpt lat="52.0410748478" lon="-2.0599661116"><ele>117.90</ele><time>2015-08-05T09:27:07Z</time></trkpt><trkpt lat="52.0412527118" lon="-2.0600234438"><ele>119.34</ele><time>2015-08-05T09:27:24Z</time></trkpt><trkpt lat="52.0413911808" lon="-2.0600420516"><ele>120.30</ele><time>2015-08-05T09:27:36Z</time></trkpt><trkpt lat="52.0415341761" lon="-2.0600770880"><ele>121.74</ele><time>2015-08-05T09:27:49Z</time></trkpt><trkpt lat="52.0417132974" lon="-2.0601345040"><ele>122.71</ele><time>2015-08-05T09:28:06Z</time></trkpt><trkpt lat="52.0417717192" lon="-2.0601504296"><ele>125.59</ele><time>2015-08-05T09:28:11Z</time></trkpt><trkpt lat="52.0417805202" lon="-2.0601546206"><ele>125.59</ele><time>2015-08-05T09:28:12Z</time></trkpt><trkpt lat="52.0417988766" lon="-2.0601597335"><ele>123.67</ele><time>2015-08-05T09:28:14Z</time></trkpt><trkpt lat="52.0418220945" lon="-2.0601650141"><ele>125.11</ele><time>2015-08-05T09:28:16Z</time></trkpt><trkpt lat="52.0419473201" lon="-2.0602081809"><ele>127.51</ele><time>2015-08-05T09:28:28Z</time></trkpt><trkpt lat="52.0419861283" lon="-2.0602236036"><ele>126.55</ele><time>2015-08-05T09:28:31Z</time></trkpt><trkpt lat="52.0420776587" lon="-2.0602519345"><ele>127.99</ele><time>2015-08-05T09:28:39Z</time></trkpt><trkpt lat="52.0422169659" lon="-2.0602854621"><ele>130.88</ele><time>2015-08-05T09:28:51Z</time></trkpt><trkpt lat="52.0422349032" lon="-2.0602933411"><ele>127.51</ele><time>2015-08-05T09:28:53Z</time></trkpt><trkpt lat="52.0422922354" lon="-2.0602873899"><ele>131.36</ele><time>2015-08-05T09:28:58Z</time></trkpt><trkpt lat="52.0424002782" lon="-2.0603160560"><ele>131.84</ele><time>2015-08-05T09:29:08Z</time></trkpt><trkpt lat="52.0426064730" lon="-2.0604020543"><ele>134.72</ele><time>2015-08-05T09:29:26Z</time></trkpt><trkpt lat="52.0427114982" lon="-2.0604366716"><ele>135.68</ele><time>2015-08-05T09:29:41Z</time></trkpt><trkpt lat="52.0426990092" lon="-2.0604467299"><ele>135.20</ele><time>2015-08-05T09:30:12Z</time></trkpt><trkpt lat="52.0427157730" lon="-2.0604447182"><ele>135.68</ele><time>2015-08-05T09:30:34Z</time></trkpt><trkpt lat="52.0428649709" lon="-2.0604920760"><ele>136.16</ele><time>2015-08-05T09:30:51Z</time></trkpt><trkpt lat="52.0430375542" lon="-2.0604919922"><ele>137.13</ele><time>2015-08-05T09:31:10Z</time></trkpt><trkpt lat="52.0430290047" lon="-2.0604999550"><ele>137.13</ele><time>2015-08-05T09:31:35Z</time></trkpt><trkpt lat="52.0430320222" lon="-2.0605124440"><ele>136.64</ele><time>2015-08-05T09:31:48Z</time></trkpt><trkpt lat="52.0430305135" lon="-2.0605135337"><ele>137.13</ele><time>2015-08-05T09:32:18Z</time></trkpt><trkpt lat="52.0430323575" lon="-2.0605163835"><ele>138.09</ele><time>2015-08-05T09:32:39Z</time></trkpt><trkpt lat="52.0430362131" lon="-2.0605061576"><ele>137.61</ele><time>2015-08-05T09:33:03Z</time></trkpt><trkpt lat="52.0430497918" lon="-2.0604948420"><ele>137.13</ele><time>2015-08-05T09:33:17Z</time></trkpt><trkpt lat="52.0430735126" lon="-2.0604859572"><ele>138.09</ele><time>2015-08-05T09:33:19Z</time></trkpt><trkpt lat="52.0431576669" lon="-2.0604985300"><ele>137.13</ele><time>2015-08-05T09:33:26Z</time></trkpt><trkpt lat="52.0433060266" lon="-2.0605501626"><ele>139.05</ele><time>2015-08-05T09:33:40Z</time></trkpt><trkpt lat="52.0434226189" lon="-2.0605653338"><ele>140.01</ele><time>2015-08-05T09:33:51Z</time></trkpt><trkpt lat="52.0435344335" lon="-2.0605530124"><ele>140.97</ele><time>2015-08-05T09:34:03Z</time></trkpt><trkpt lat="52.0435947832" lon="-2.0605375897"><ele>140.49</ele><time>2015-08-05T09:34:10Z</time></trkpt><trkpt lat="52.0436231978" lon="-2.0605448820"><ele>142.89</ele><time>2015-08-05T09:34:13Z</time></trkpt><trkpt lat="52.0437060948" lon="-2.0605255198"><ele>142.89</ele><time>2015-08-05T09:34:22Z</time></trkpt><trkpt lat="52.0438205078" lon="-2.0604823530"><ele>145.78</ele><time>2015-08-05T09:34:35Z</time></trkpt><trkpt lat="52.0438447315" lon="-2.0604841970"><ele>144.34</ele><time>2015-08-05T09:34:37Z</time></trkpt><trkpt lat="52.0438941848" lon="-2.0604795869"><ele>144.82</ele><time>2015-08-05T09:34:41Z</time></trkpt><trkpt lat="52.0439170673" lon="-2.0604739711"><ele>145.78</ele><time>2015-08-05T09:34:43Z</time></trkpt><trkpt lat="52.0440774132" lon="-2.0604532678"><ele>146.26</ele><time>2015-08-05T09:34:57Z</time></trkpt><trkpt lat="52.0441983640" lon="-2.0604230929"><ele>148.18</ele><time>2015-08-05T09:35:09Z</time></trkpt><trkpt lat="52.0442870446" lon="-2.0603691973"><ele>149.14</ele><time>2015-08-05T09:35:19Z</time></trkpt><trkpt lat="52.0444298722" lon="-2.0602961909"><ele>150.10</ele><time>2015-08-05T09:35:32Z</time></trkpt><trkpt lat="52.0445686765" lon="-2.0601614099"><ele>152.51</ele><time>2015-08-05T09:35:47Z</time></trkpt><trkpt lat="52.0446011983" lon="-2.0601338334"><ele>152.03</ele><time>2015-08-05T09:35:51Z</time></trkpt><trkpt lat="52.0446584467" lon="-2.0601060055"><ele>152.51</ele><time>2015-08-05T09:35:57Z</time></trkpt><trkpt lat="52.0447286032" lon="-2.0600372739"><ele>152.99</ele><time>2015-08-05T09:36:04Z</time></trkpt><trkpt lat="52.0447885338" lon="-2.0600639284"><ele>152.99</ele><time>2015-08-05T09:36:15Z</time></trkpt><trkpt lat="52.0447981730" lon="-2.0601350069"><ele>154.43</ele><time>2015-08-05T09:36:30Z</time></trkpt><trkpt lat="52.0448060520" lon="-2.0600386988"><ele>154.91</ele><time>2015-08-05T09:36:35Z</time></trkpt><trkpt lat="52.0449147653" lon="-2.0599075221"><ele>156.83</ele><time>2015-08-05T09:36:47Z</time></trkpt><trkpt lat="52.0450446848" lon="-2.0598375332"><ele>156.35</ele><time>2015-08-05T09:36:59Z</time></trkpt><trkpt lat="52.0451609418" lon="-2.0598099567"><ele>161.64</ele><time>2015-08-05T09:37:09Z</time></trkpt><trkpt lat="52.0451798849" lon="-2.0598084480"><ele>159.24</ele><time>2015-08-05T09:37:11Z</time></trkpt><trkpt lat="52.0452728402" lon="-2.0598085318"><ele>162.60</ele><time>2015-08-05T09:37:19Z</time></trkpt><trkpt lat="52.0453609340" lon="-2.0597854815"><ele>162.60</ele><time>2015-08-05T09:37:27Z</time></trkpt><trkpt lat="52.0453972276" lon="-2.0597750880"><ele>164.52</ele><time>2015-08-05T09:37:30Z</time></trkpt><trkpt lat="52.0455369540" lon="-2.0597541332"><ele>165.96</ele><time>2015-08-05T09:37:43Z</time></trkpt><trkpt lat="52.0455945376" lon="-2.0597480983"><ele>167.41</ele><time>2015-08-05T09:37:49Z</time></trkpt><trkpt lat="52.0456948690" lon="-2.0597292390"><ele>166.45</ele><time>2015-08-05T09:37:58Z</time></trkpt><trkpt lat="52.0457691327" lon="-2.0597121399"><ele>166.93</ele><time>2015-08-05T09:38:05Z</time></trkpt><trkpt lat="52.0458122995" lon="-2.0597047638"><ele>168.85</ele><time>2015-08-05T09:38:09Z</time></trkpt><trkpt lat="52.0459210128" lon="-2.0596901793"><ele>169.33</ele><time>2015-08-05T09:38:18Z</time></trkpt><trkpt lat="52.0460630022" lon="-2.0596259739"><ele>171.73</ele><time>2015-08-05T09:38:32Z</time></trkpt><trkpt lat="52.0461195800" lon="-2.0596217830"><ele>172.21</ele><time>2015-08-05T09:38:49Z</time></trkpt><trkpt lat="52.0461218432" lon="-2.0595979784"><ele>173.17</ele><time>2015-08-05T09:39:07Z</time></trkpt><trkpt lat="52.0461377688" lon="-2.0596124791"><ele>171.73</ele><time>2015-08-05T09:39:20Z</time></trkpt><trkpt lat="52.0461215917" lon="-2.0596703980"><ele>172.21</ele><time>2015-08-05T09:39:30Z</time></trkpt><trkpt lat="52.0461190771" lon="-2.0596728288"><ele>171.73</ele><time>2015-08-05T09:39:55Z</time></trkpt><trkpt lat="52.0461184904" lon="-2.0596664585"><ele>172.21</ele><time>2015-08-05T09:40:23Z</time></trkpt><trkpt lat="52.0461145509" lon="-2.0596725773"><ele>172.69</ele><time>2015-08-05T09:40:50Z</time></trkpt><trkpt lat="52.0461153891" lon="-2.0596696436"><ele>172.21</ele><time>2015-08-05T09:41:14Z</time></trkpt><trkpt lat="52.0462146308" lon="-2.0596025046"><ele>175.10</ele><time>2015-08-05T09:41:30Z</time></trkpt><trkpt lat="52.0462216716" lon="-2.0596025046"><ele>175.10</ele><time>2015-08-05T09:41:31Z</time></trkpt><trkpt lat="52.0464129467" lon="-2.0595557336"><ele>176.54</ele><time>2015-08-05T09:41:49Z</time></trkpt><trkpt lat="52.0465174690" lon="-2.0595574938"><ele>177.02</ele><time>2015-08-05T09:41:57Z</time></trkpt><trkpt lat="52.0466085803" lon="-2.0595517103"><ele>178.46</ele><time>2015-08-05T09:42:04Z</time></trkpt><trkpt lat="52.0467778947" lon="-2.0594914444"><ele>178.46</ele><time>2015-08-05T09:42:19Z</time></trkpt><trkpt lat="52.0467900485" lon="-2.0594979823"><ele>179.90</ele><time>2015-08-05T09:42:21Z</time></trkpt><trkpt lat="52.0468321256" lon="-2.0595005807"><ele>180.87</ele><time>2015-08-05T09:42:25Z</time></trkpt><trkpt lat="52.0469995961" lon="-2.0595077891"><ele>181.35</ele><time>2015-08-05T09:42:43Z</time></trkpt><trkpt lat="52.0471036155" lon="-2.0594934560"><ele>184.71</ele><time>2015-08-05T09:43:00Z</time></trkpt><trkpt lat="52.0471399091" lon="-2.0594734233"><ele>184.23</ele><time>2015-08-05T09:43:03Z</time></trkpt><trkpt lat="52.0472868439" lon="-2.0594083797"><ele>186.15</ele><time>2015-08-05T09:43:15Z</time></trkpt><trkpt lat="52.0474953856" lon="-2.0593274944"><ele>187.11</ele><time>2015-08-05T09:43:33Z</time></trkpt><trkpt lat="52.0477366168" lon="-2.0592134167"><ele>190.48</ele><time>2015-08-05T09:43:54Z</time></trkpt><trkpt lat="52.0477748383" lon="-2.0591916237"><ele>190.48</ele><time>2015-08-05T09:43:58Z</time></trkpt><trkpt lat="52.0478451625" lon="-2.0591679029"><ele>190.00</ele><time>2015-08-05T09:44:03Z</time></trkpt><trkpt lat="52.0478634350" lon="-2.0591565873"><ele>191.44</ele><time>2015-08-05T09:44:05Z</time></trkpt><trkpt lat="52.0480592363" lon="-2.0591274183"><ele>194.80</ele><time>2015-08-05T09:44:24Z</time></trkpt><trkpt lat="52.0481385291" lon="-2.0590850059"><ele>194.80</ele><time>2015-08-05T09:44:31Z</time></trkpt><trkpt lat="52.0483380184" lon="-2.0590808988"><ele>196.25</ele><time>2015-08-05T09:44:51Z</time></trkpt><trkpt lat="52.0483476575" lon="-2.0591396559"><ele>195.77</ele><time>2015-08-05T09:45:17Z</time></trkpt><trkpt lat="52.0483417064" lon="-2.0591368061"><ele>196.25</ele><time>2015-08-05T09:45:42Z</time></trkpt><trkpt lat="52.0483578835" lon="-2.0591009315"><ele>196.25</ele><time>2015-08-05T09:46:04Z</time></trkpt><trkpt lat="52.0485143736" lon="-2.0590366423"><ele>197.69</ele><time>2015-08-05T09:46:23Z</time></trkpt><trkpt lat="52.0486412756" lon="-2.0590020251"><ele>198.65</ele><time>2015-08-05T09:46:41Z</time></trkpt><trkpt lat="52.0487447083" lon="-2.0589597803"><ele>201.05</ele><time>2015-08-05T09:46:55Z</time></trkpt><trkpt lat="52.0489401743" lon="-2.0588957425"><ele>202.01</ele><time>2015-08-05T09:47:17Z</time></trkpt><trkpt lat="52.0490613766" lon="-2.0589048788"><ele>204.42</ele><time>2015-08-05T09:47:35Z</time></trkpt><trkpt lat="52.0492162742" lon="-2.0589027833"><ele>207.30</ele><time>2015-08-05T09:47:53Z</time></trkpt><trkpt lat="52.0492238179" lon="-2.0588953234"><ele>204.42</ele><time>2015-08-05T09:47:54Z</time></trkpt><trkpt lat="52.0492400788" lon="-2.0588862710"><ele>207.30</ele><time>2015-08-05T09:47:56Z</time></trkpt><trkpt lat="52.0494214632" lon="-2.0588773862"><ele>209.22</ele><time>2015-08-05T09:48:15Z</time></trkpt><trkpt lat="52.0494845789" lon="-2.0588657353"><ele>209.22</ele><time>2015-08-05T09:48:22Z</time></trkpt><trkpt lat="52.0495353732" lon="-2.0588767156"><ele>210.19</ele><time>2015-08-05T09:48:45Z</time></trkpt><trkpt lat="52.0497018378" lon="-2.0588315371"><ele>214.03</ele><time>2015-08-05T09:49:01Z</time></trkpt><trkpt lat="52.0498140715" lon="-2.0587668288"><ele>214.99</ele><time>2015-08-05T09:49:12Z</time></trkpt><trkpt lat="52.0500356052" lon="-2.0587089937"><ele>215.47</ele><time>2015-08-05T09:49:31Z</time></trkpt><trkpt lat="52.0501134731" lon="-2.0587239973"><ele>218.36</ele><time>2015-08-05T09:49:38Z</time></trkpt><trkpt lat="52.0503053349" lon="-2.0587243326"><ele>219.80</ele><time>2015-08-05T09:49:56Z</time></trkpt><trkpt lat="52.0504250284" lon="-2.0586083271"><ele>220.76</ele><time>2015-08-05T09:50:17Z</time></trkpt><trkpt lat="52.0504917484" lon="-2.0584864542"><ele>222.20</ele><time>2015-08-05T09:50:31Z</time></trkpt><trkpt lat="52.0504915807" lon="-2.0585323032"><ele>222.20</ele><time>2015-08-05T09:50:54Z</time></trkpt><trkpt lat="52.0505041536" lon="-2.0585104264"><ele>222.20</ele><time>2015-08-05T09:51:12Z</time></trkpt><trkpt lat="52.0505171455" lon="-2.0585228316"><ele>222.68</ele><time>2015-08-05T09:51:37Z</time></trkpt><trkpt lat="52.0505318977" lon="-2.0585172158"><ele>222.68</ele><time>2015-08-05T09:52:04Z</time></trkpt><trkpt lat="52.0505544450" lon="-2.0585570298"><ele>222.68</ele><time>2015-08-05T09:52:29Z</time></trkpt><trkpt lat="52.0505168103" lon="-2.0586382505"><ele>222.20</ele><time>2015-08-05T09:52:55Z</time></trkpt><trkpt lat="52.0507550240" lon="-2.0584989432"><ele>225.09</ele><time>2015-08-05T09:53:17Z</time></trkpt><trkpt lat="52.0508323889" lon="-2.0584816765"><ele>226.05</ele><time>2015-08-05T09:53:23Z</time></trkpt><trkpt lat="52.0510265976" lon="-2.0583660901"><ele>228.45</ele><time>2015-08-05T09:53:43Z</time></trkpt><trkpt lat="52.0510500669" lon="-2.0583648328"><ele>225.57</ele><time>2015-08-05T09:53:45Z</time></trkpt><trkpt lat="52.0511147752" lon="-2.0583211631"><ele>228.93</ele><time>2015-08-05T09:53:52Z</time></trkpt><trkpt lat="52.0512964111" lon="-2.0582337398"><ele>229.41</ele><time>2015-08-05T09:54:07Z</time></trkpt><trkpt lat="52.0514635462" lon="-2.0581205841"><ele>231.81</ele><time>2015-08-05T09:54:24Z</time></trkpt><trkpt lat="52.0516288374" lon="-2.0580675267"><ele>232.78</ele><time>2015-08-05T09:54:40Z</time></trkpt><trkpt lat="52.0517663844" lon="-2.0578935184"><ele>234.70</ele><time>2015-08-05T09:54:57Z</time></trkpt><trkpt lat="52.0519073680" lon="-2.0577106252"><ele>236.62</ele><time>2015-08-05T09:55:14Z</time></trkpt><trkpt lat="52.0521737449" lon="-2.0576251298"><ele>237.58</ele><time>2015-08-05T09:55:33Z</time></trkpt><trkpt lat="52.0523250382" lon="-2.0575823821"><ele>239.99</ele><time>2015-08-05T09:55:49Z</time></trkpt><trkpt lat="52.0524552930" lon="-2.0575426519"><ele>241.43</ele><time>2015-08-05T09:56:00Z</time></trkpt><trkpt lat="52.0526976977" lon="-2.0574344415"><ele>242.39</ele><time>2015-08-05T09:56:21Z</time></trkpt><trkpt lat="52.0527083427" lon="-2.0574292447"><ele>243.35</ele><time>2015-08-05T09:56:23Z</time></trkpt><trkpt lat="52.0528152958" lon="-2.0573750138"><ele>244.79</ele><time>2015-08-05T09:56:38Z</time></trkpt><trkpt lat="52.0528673474" lon="-2.0573582500"><ele>246.23</ele><time>2015-08-05T09:56:58Z</time></trkpt><trkpt lat="52.0529842749" lon="-2.0572005026"><ele>246.23</ele><time>2015-08-05T09:57:13Z</time></trkpt><trkpt lat="52.0531717781" lon="-2.0570787136"><ele>247.68</ele><time>2015-08-05T09:57:29Z</time></trkpt><trkpt lat="52.0532916393" lon="-2.0570198726"><ele>247.68</ele><time>2015-08-05T09:57:42Z</time></trkpt><trkpt lat="52.0533648971" lon="-2.0569213852"><ele>247.68</ele><time>2015-08-05T09:57:54Z</time></trkpt><trkpt lat="52.0533802360" lon="-2.0569165237"><ele>247.68</ele><time>2015-08-05T09:58:32Z</time></trkpt><trkpt lat="52.0533863548" lon="-2.0569165237"><ele>248.16</ele><time>2015-08-05T09:59:00Z</time></trkpt><trkpt lat="52.0533913840" lon="-2.0569210500"><ele>248.16</ele><time>2015-08-05T09:59:29Z</time></trkpt><trkpt lat="52.0533953235" lon="-2.0569213014"><ele>248.64</ele><time>2015-08-05T10:00:03Z</time></trkpt><trkpt lat="52.0533821639" lon="-2.0569160208"><ele>248.16</ele><time>2015-08-05T10:00:11Z</time></trkpt><trkpt lat="52.0533237420" lon="-2.0569971576"><ele>247.20</ele><time>2015-08-05T10:00:25Z</time></trkpt><trkpt lat="52.0533605386" lon="-2.0570060425"><ele>248.64</ele><time>2015-08-05T10:00:30Z</time></trkpt><trkpt lat="52.0533707645" lon="-2.0570455212"><ele>248.16</ele><time>2015-08-05T10:00:42Z</time></trkpt><trkpt lat="52.0533072297" lon="-2.0570246503"><ele>248.16</ele><time>2015-08-05T10:01:00Z</time></trkpt><trkpt lat="52.0532715227" lon="-2.0570273325"><ele>248.64</ele><time>2015-08-05T10:01:04Z</time></trkpt><trkpt lat="52.0531916432" lon="-2.0570389833"><ele>247.68</ele><time>2015-08-05T10:01:14Z</time></trkpt><trkpt lat="52.0530805830" lon="-2.0569901168"><ele>247.68</ele><time>2015-08-05T10:01:31Z</time></trkpt><trkpt lat="52.0530727878" lon="-2.0569358859"><ele>248.16</ele><time>2015-08-05T10:01:48Z</time></trkpt><trkpt lat="52.0530893002" lon="-2.0568551682"><ele>247.20</ele><time>2015-08-05T10:02:10Z</time></trkpt><trkpt lat="52.0531011187" lon="-2.0568700042"><ele>248.64</ele><time>2015-08-05T10:02:29Z</time></trkpt><trkpt lat="52.0530817565" lon="-2.0568911266"><ele>247.68</ele><time>2015-08-05T10:02:50Z</time></trkpt><trkpt lat="52.0530985203" lon="-2.0569304377"><ele>247.20</ele><time>2015-08-05T10:03:15Z</time></trkpt><trkpt lat="52.0530947484" lon="-2.0569332037"><ele>247.68</ele><time>2015-08-05T10:03:41Z</time></trkpt><trkpt lat="52.0530955866" lon="-2.0569361374"><ele>247.68</ele><time>2015-08-05T10:04:15Z</time></trkpt><trkpt lat="52.0530981850" lon="-2.0569374785"><ele>247.20</ele><time>2015-08-05T10:04:38Z</time></trkpt><trkpt lat="52.0531080756" lon="-2.0569404121"><ele>247.68</ele><time>2015-08-05T10:05:06Z</time></trkpt><trkpt lat="52.0531064831" lon="-2.0569426753"><ele>247.20</ele><time>2015-08-05T10:05:37Z</time></trkpt><trkpt lat="52.0531086624" lon="-2.0569427591"><ele>248.16</ele><time>2015-08-05T10:06:07Z</time></trkpt><trkpt lat="52.0531058963" lon="-2.0569412503"><ele>248.16</ele><time>2015-08-05T10:06:39Z</time></trkpt><trkpt lat="52.0531075727" lon="-2.0569384005"><ele>247.68</ele><time>2015-08-05T10:07:07Z</time></trkpt><trkpt lat="52.0531139430" lon="-2.0569348801"><ele>248.64</ele><time>2015-08-05T10:07:36Z</time></trkpt><trkpt lat="52.0531137753" lon="-2.0569369756"><ele>248.64</ele><time>2015-08-05T10:08:09Z</time></trkpt><trkpt lat="52.0531105902" lon="-2.0569363050"><ele>248.64</ele><time>2015-08-05T10:08:39Z</time></trkpt><trkpt lat="52.0531202294" lon="-2.0568859298"><ele>247.68</ele><time>2015-08-05T10:09:01Z</time></trkpt><trkpt lat="52.0531154517" lon="-2.0569218043"><ele>248.16</ele><time>2015-08-05T10:09:17Z</time></trkpt><trkpt lat="52.0531141106" lon="-2.0569259953"><ele>248.64</ele><time>2015-08-05T10:09:43Z</time></trkpt><trkpt lat="52.0531262644" lon="-2.0568749495"><ele>249.12</ele><time>2015-08-05T10:09:59Z</time></trkpt><trkpt lat="52.0531247556" lon="-2.0568679087"><ele>249.60</ele><time>2015-08-05T10:10:18Z</time></trkpt><trkpt lat="52.0531250071" lon="-2.0568695851"><ele>248.64</ele><time>2015-08-05T10:10:25Z</time></trkpt><trkpt lat="52.0531233307" lon="-2.0568694174"><ele>250.56</ele><time>2015-08-05T10:10:27Z</time></trkpt><trkpt lat="52.0531209838" lon="-2.0568915457"><ele>248.64</ele><time>2015-08-05T10:10:30Z</time></trkpt><trkpt lat="52.0531178825" lon="-2.0569653064"><ele>248.16</ele><time>2015-08-05T10:10:45Z</time></trkpt><trkpt lat="52.0531496499" lon="-2.0570085570"><ele>247.68</ele><time>2015-08-05T10:10:51Z</time></trkpt><trkpt lat="52.0532261766" lon="-2.0570124127"><ele>249.12</ele><time>2015-08-05T10:10:56Z</time></trkpt><trkpt lat="52.0533794817" lon="-2.0570023544"><ele>248.16</ele><time>2015-08-05T10:11:06Z</time></trkpt><trkpt lat="52.0534239896" lon="-2.0569922123"><ele>249.60</ele><time>2015-08-05T10:11:09Z</time></trkpt><trkpt lat="52.0535043720" lon="-2.0569899492"><ele>249.60</ele><time>2015-08-05T10:11:21Z</time></trkpt><trkpt lat="52.0535032824" lon="-2.0569788851"><ele>248.64</ele><time>2015-08-05T10:11:30Z</time></trkpt><trkpt lat="52.0533629693" lon="-2.0568023622"><ele>250.56</ele><time>2015-08-05T10:11:46Z</time></trkpt><trkpt lat="52.0532988477" lon="-2.0567146037"><ele>249.12</ele><time>2015-08-05T10:11:53Z</time></trkpt><trkpt lat="52.0532439463" lon="-2.0565485582"><ele>251.52</ele><time>2015-08-05T10:12:07Z</time></trkpt><trkpt lat="52.0532052219" lon="-2.0562872943"><ele>251.04</ele><time>2015-08-05T10:12:26Z</time></trkpt><trkpt lat="52.0531840995" lon="-2.0560483262"><ele>251.04</ele><time>2015-08-05T10:12:42Z</time></trkpt><trkpt lat="52.0531549305" lon="-2.0557991322"><ele>252.00</ele><time>2015-08-05T10:12:59Z</time></trkpt><trkpt lat="52.0531406812" lon="-2.0555972960"><ele>252.48</ele><time>2015-08-05T10:13:13Z</time></trkpt><trkpt lat="52.0531256776" lon="-2.0553123113"><ele>252.00</ele><time>2015-08-05T10:13:32Z</time></trkpt><trkpt lat="52.0530839358" lon="-2.0550686494"><ele>252.48</ele><time>2015-08-05T10:13:46Z</time></trkpt><trkpt lat="52.0530815888" lon="-2.0549026038"><ele>252.48</ele><time>2015-08-05T10:13:57Z</time></trkpt><trkpt lat="52.0530818403" lon="-2.0548069663"><ele>252.48</ele><time>2015-08-05T10:14:03Z</time></trkpt><trkpt lat="52.0530592091" lon="-2.0545921382"><ele>252.96</ele><time>2015-08-05T10:14:16Z</time></trkpt><trkpt lat="52.0530313812" lon="-2.0543744601"><ele>252.96</ele><time>2015-08-05T10:14:32Z</time></trkpt><trkpt lat="52.0530228317" lon="-2.0543040521"><ele>252.48</ele><time>2015-08-05T10:14:36Z</time></trkpt><trkpt lat="52.0530224964" lon="-2.0541552734"><ele>252.00</ele><time>2015-08-05T10:14:45Z</time></trkpt><trkpt lat="52.0530232508" lon="-2.0540606417"><ele>253.93</ele><time>2015-08-05T10:14:51Z</time></trkpt><trkpt lat="52.0530364942" lon="-2.0539401099"><ele>253.44</ele><time>2015-08-05T10:15:06Z</time></trkpt><trkpt lat="52.0530574489" lon="-2.0538434666"><ele>254.89</ele><time>2015-08-05T10:15:17Z</time></trkpt><trkpt lat="52.0530872047" lon="-2.0537113678"><ele>254.41</ele><time>2015-08-05T10:15:26Z</time></trkpt><trkpt lat="52.0531292818" lon="-2.0535132196"><ele>254.89</ele><time>2015-08-05T10:15:40Z</time></trkpt><trkpt lat="52.0531694312" lon="-2.0533700567"><ele>254.89</ele><time>2015-08-05T10:15:49Z</time></trkpt><trkpt lat="52.0531755500" lon="-2.0533011574"><ele>256.33</ele><time>2015-08-05T10:15:53Z</time></trkpt><trkpt lat="52.0532146096" lon="-2.0530736726"><ele>255.85</ele><time>2015-08-05T10:16:07Z</time></trkpt><trkpt lat="52.0532568544" lon="-2.0528991614"><ele>255.85</ele><time>2015-08-05T10:16:18Z</time></trkpt><trkpt lat="52.0532832574" lon="-2.0527820662"><ele>255.37</ele><time>2015-08-05T10:16:27Z</time></trkpt><trkpt lat="52.0532892924" lon="-2.0527512208"><ele>256.33</ele><time>2015-08-05T10:16:29Z</time></trkpt><trkpt lat="52.0532926451" lon="-2.0527391508"><ele>255.37</ele><time>2015-08-05T10:16:30Z</time></trkpt><trkpt lat="52.0533135161" lon="-2.0525102410"><ele>255.37</ele><time>2015-08-05T10:16:42Z</time></trkpt><trkpt lat="52.0533231553" lon="-2.0524638053"><ele>255.85</ele><time>2015-08-05T10:16:45Z</time></trkpt><trkpt lat="52.0533270948" lon="-2.0522229932"><ele>255.37</ele><time>2015-08-05T10:16:59Z</time></trkpt><trkpt lat="52.0533131808" lon="-2.0521452092"><ele>255.85</ele><time>2015-08-05T10:17:06Z</time></trkpt><trkpt lat="52.0532954950" lon="-2.0521287806"><ele>255.37</ele><time>2015-08-05T10:17:08Z</time></trkpt><trkpt lat="52.0532810781" lon="-2.0521101728"><ele>254.41</ele><time>2015-08-05T10:17:14Z</time></trkpt><trkpt lat="52.0532923099" lon="-2.0520580374"><ele>255.37</ele><time>2015-08-05T10:17:17Z</time></trkpt><trkpt lat="52.0533476304" lon="-2.0518416166"><ele>255.37</ele><time>2015-08-05T10:17:29Z</time></trkpt><trkpt lat="52.0533594489" lon="-2.0515760779"><ele>256.33</ele><time>2015-08-05T10:17:44Z</time></trkpt><trkpt lat="52.0533567667" lon="-2.0514713880"><ele>255.85</ele><time>2015-08-05T10:17:50Z</time></trkpt><trkpt lat="52.0533597004" lon="-2.0512990560"><ele>257.29</ele><time>2015-08-05T10:18:05Z</time></trkpt><trkpt lat="52.0533524081" lon="-2.0512827951"><ele>256.81</ele><time>2015-08-05T10:18:24Z</time></trkpt><trkpt lat="52.0533522405" lon="-2.0512810349"><ele>257.77</ele><time>2015-08-05T10:18:29Z</time></trkpt><trkpt lat="52.0533524919" lon="-2.0512775984"><ele>254.89</ele><time>2015-08-05T10:18:48Z</time></trkpt><trkpt lat="52.0533524919" lon="-2.0512770955"><ele>258.73</ele><time>2015-08-05T10:18:50Z</time></trkpt><trkpt lat="52.0533600356" lon="-2.0512608346"><ele>258.73</ele><time>2015-08-05T10:19:12Z</time></trkpt><trkpt lat="52.0533897076" lon="-2.0512645226"><ele>258.73</ele><time>2015-08-05T10:19:35Z</time></trkpt><trkpt lat="52.0533798169" lon="-2.0512532070"><ele>256.81</ele><time>2015-08-05T10:19:55Z</time></trkpt><trkpt lat="52.0533833373" lon="-2.0509825554"><ele>258.25</ele><time>2015-08-05T10:20:11Z</time></trkpt><trkpt lat="52.0533895399" lon="-2.0507858321"><ele>258.73</ele><time>2015-08-05T10:20:24Z</time></trkpt><trkpt lat="52.0533964131" lon="-2.0505470317"><ele>258.25</ele><time>2015-08-05T10:20:39Z</time></trkpt><trkpt lat="52.0533862710" lon="-2.0503560081"><ele>257.77</ele><time>2015-08-05T10:20:51Z</time></trkpt><trkpt lat="52.0533658192" lon="-2.0500947442"><ele>258.25</ele><time>2015-08-05T10:21:06Z</time></trkpt><trkpt lat="52.0533581916" lon="-2.0498407725"><ele>257.29</ele><time>2015-08-05T10:21:21Z</time></trkpt><trkpt lat="52.0533484686" lon="-2.0497290418"><ele>258.73</ele><time>2015-08-05T10:21:28Z</time></trkpt><trkpt lat="52.0533357281" lon="-2.0496453065"><ele>258.73</ele><time>2015-08-05T10:21:33Z</time></trkpt><trkpt lat="52.0533232391" lon="-2.0494205039"><ele>257.29</ele><time>2015-08-05T10:21:47Z</time></trkpt><trkpt lat="52.0532893762" lon="-2.0491624251"><ele>258.73</ele><time>2015-08-05T10:22:02Z</time></trkpt><trkpt lat="52.0532571059" lon="-2.0489444956"><ele>260.17</ele><time>2015-08-05T10:22:17Z</time></trkpt><trkpt lat="52.0532164536" lon="-2.0487151667"><ele>259.69</ele><time>2015-08-05T10:22:31Z</time></trkpt><trkpt lat="52.0531851053" lon="-2.0485852472"><ele>259.21</ele><time>2015-08-05T10:22:44Z</time></trkpt><trkpt lat="52.0531848539" lon="-2.0485705789"><ele>259.69</ele><time>2015-08-05T10:23:00Z</time></trkpt><trkpt lat="52.0531823393" lon="-2.0485309325"><ele>259.21</ele><time>2015-08-05T10:23:02Z</time></trkpt><trkpt lat="52.0531587023" lon="-2.0483846683"><ele>258.25</ele><time>2015-08-05T10:23:11Z</time></trkpt><trkpt lat="52.0531529188" lon="-2.0483404119"><ele>258.25</ele><time>2015-08-05T10:23:14Z</time></trkpt><trkpt lat="52.0531256776" lon="-2.0481703430"><ele>258.25</ele><time>2015-08-05T10:23:24Z</time></trkpt><trkpt lat="52.0531229954" lon="-2.0480856858"><ele>258.73</ele><time>2015-08-05T10:23:38Z</time></trkpt><trkpt lat="52.0531183854" lon="-2.0480584446"><ele>258.25</ele><time>2015-08-05T10:24:03Z</time></trkpt><trkpt lat="52.0530935749" lon="-2.0479606278"><ele>258.73</ele><time>2015-08-05T10:24:16Z</time></trkpt><trkpt lat="52.0530732907" lon="-2.0478789881"><ele>258.73</ele><time>2015-08-05T10:24:23Z</time></trkpt><trkpt lat="52.0530514140" lon="-2.0478245057"><ele>258.73</ele><time>2015-08-05T10:24:27Z</time></trkpt><trkpt lat="52.0530422777" lon="-2.0477779023"><ele>259.21</ele><time>2015-08-05T10:24:43Z</time></trkpt><trkpt lat="52.0530398469" lon="-2.0477776509"><ele>254.89</ele><time>2015-08-05T10:24:59Z</time></trkpt><trkpt lat="52.0530387573" lon="-2.0477767289"><ele>259.69</ele><time>2015-08-05T10:25:00Z</time></trkpt><trkpt lat="52.0530388411" lon="-2.0477775671"><ele>259.69</ele><time>2015-08-05T10:25:01Z</time></trkpt><trkpt lat="52.0530361589" lon="-2.0477939118"><ele>258.73</ele><time>2015-08-05T10:25:21Z</time></trkpt><trkpt lat="52.0530388411" lon="-2.0477657486"><ele>261.14</ele><time>2015-08-05T10:25:38Z</time></trkpt><trkpt lat="52.0530378353" lon="-2.0477140322"><ele>260.17</ele><time>2015-08-05T10:25:49Z</time></trkpt><trkpt lat="52.0530062355" lon="-2.0475955959"><ele>259.21</ele><time>2015-08-05T10:25:57Z</time></trkpt><trkpt lat="52.0529406890" lon="-2.0473857131"><ele>260.65</ele><time>2015-08-05T10:26:09Z</time></trkpt><trkpt lat="52.0529069938" lon="-2.0472591463"><ele>260.17</ele><time>2015-08-05T10:26:15Z</time></trkpt><trkpt lat="52.0528836083" lon="-2.0471885707"><ele>260.17</ele><time>2015-08-05T10:26:19Z</time></trkpt><trkpt lat="52.0528479014" lon="-2.0468684658"><ele>263.06</ele><time>2015-08-05T10:26:34Z</time></trkpt><trkpt lat="52.0528199896" lon="-2.0465448406"><ele>263.54</ele><time>2015-08-05T10:26:49Z</time></trkpt><trkpt lat="52.0527430438" lon="-2.0462361351"><ele>262.58</ele><time>2015-08-05T10:27:05Z</time></trkpt><trkpt lat="52.0526775811" lon="-2.0458926447"><ele>262.58</ele><time>2015-08-05T10:27:21Z</time></trkpt><trkpt lat="52.0526011381" lon="-2.0456428640"><ele>263.06</ele><time>2015-08-05T10:27:34Z</time></trkpt><trkpt lat="52.0525444765" lon="-2.0454191510"><ele>263.54</ele><time>2015-08-05T10:27:46Z</time></trkpt><trkpt lat="52.0524946041" lon="-2.0451790094"><ele>264.02</ele><time>2015-08-05T10:28:00Z</time></trkpt><trkpt lat="52.0524666086" lon="-2.0448367763"><ele>264.50</ele><time>2015-08-05T10:28:16Z</time></trkpt><trkpt lat="52.0524657704" lon="-2.0447880775"><ele>264.50</ele><time>2015-08-05T10:28:34Z</time></trkpt><trkpt lat="52.0524469111" lon="-2.0447891671"><ele>263.54</ele><time>2015-08-05T10:28:40Z</time></trkpt><trkpt lat="52.0523884054" lon="-2.0447765943"><ele>262.58</ele><time>2015-08-05T10:28:57Z</time></trkpt><trkpt lat="52.0524075162" lon="-2.0447865687"><ele>265.94</ele><time>2015-08-05T10:29:09Z</time></trkpt><trkpt lat="52.0524075162" lon="-2.0447866526"><ele>262.58</ele><time>2015-08-05T10:29:10Z</time></trkpt><trkpt lat="52.0524075162" lon="-2.0447866526"><ele>262.10</ele><time>2015-08-05T10:29:38Z</time></trkpt><trkpt lat="52.0524081867" lon="-2.0447855629"><ele>262.58</ele><time>2015-08-05T10:30:02Z</time></trkpt><trkpt lat="52.0524119586" lon="-2.0447884127"><ele>262.58</ele><time>2015-08-05T10:30:31Z</time></trkpt><trkpt lat="52.0524245314" lon="-2.0447967108"><ele>264.02</ele><time>2015-08-05T10:30:36Z</time></trkpt><trkpt lat="52.0524508506" lon="-2.0447269734"><ele>261.14</ele><time>2015-08-05T10:30:43Z</time></trkpt><trkpt lat="52.0524372719" lon="-2.0446543861"><ele>262.58</ele><time>2015-08-05T10:30:47Z</time></trkpt><trkpt lat="52.0523765869" lon="-2.0443349518"><ele>263.54</ele><time>2015-08-05T10:31:03Z</time></trkpt><trkpt lat="52.0522955339" lon="-2.0439509768"><ele>263.54</ele><time>2015-08-05T10:31:21Z</time></trkpt><trkpt lat="52.0522285625" lon="-2.0436292794"><ele>263.54</ele><time>2015-08-05T10:31:38Z</time></trkpt><trkpt lat="52.0521569811" lon="-2.0432800055"><ele>263.06</ele><time>2015-08-05T10:31:55Z</time></trkpt><trkpt lat="52.0520859025" lon="-2.0429794304"><ele>264.50</ele><time>2015-08-05T10:32:10Z</time></trkpt><trkpt lat="52.0520370360" lon="-2.0427198429"><ele>263.54</ele><time>2015-08-05T10:32:23Z</time></trkpt><trkpt lat="52.0519760158" lon="-2.0423672162"><ele>264.02</ele><time>2015-08-05T10:32:40Z</time></trkpt><trkpt lat="52.0519145764" lon="-2.0420142543"><ele>263.06</ele><time>2015-08-05T10:32:56Z</time></trkpt><trkpt lat="52.0518471859" lon="-2.0417128410"><ele>263.54</ele><time>2015-08-05T10:33:11Z</time></trkpt><trkpt lat="52.0517896023" lon="-2.0413862821"><ele>262.10</ele><time>2015-08-05T10:33:28Z</time></trkpt><trkpt lat="52.0517325215" lon="-2.0412644092"><ele>262.58</ele><time>2015-08-05T10:33:37Z</time></trkpt><trkpt lat="52.0517011732" lon="-2.0412660018"><ele>263.06</ele><time>2015-08-05T10:33:40Z</time></trkpt><trkpt lat="52.0516574197" lon="-2.0413231663"><ele>262.10</ele><time>2015-08-05T10:33:57Z</time></trkpt><trkpt lat="52.0516336150" lon="-2.0413295366"><ele>263.06</ele><time>2015-08-05T10:34:09Z</time></trkpt><trkpt lat="52.0515333675" lon="-2.0413983520"><ele>261.14</ele><time>2015-08-05T10:34:19Z</time></trkpt><trkpt lat="52.0513447747" lon="-2.0416021161"><ele>257.77</ele><time>2015-08-05T10:34:36Z</time></trkpt><trkpt lat="52.0511884522" lon="-2.0417388249"><ele>257.77</ele><time>2015-08-05T10:34:52Z</time></trkpt><trkpt lat="52.0510644000" lon="-2.0418767072"><ele>256.81</ele><time>2015-08-05T10:35:08Z</time></trkpt><trkpt lat="52.0509836823" lon="-2.0419462770"><ele>254.41</ele><time>2015-08-05T10:35:19Z</time></trkpt><trkpt lat="52.0508579537" lon="-2.0420705806"><ele>254.89</ele><time>2015-08-05T10:35:33Z</time></trkpt><trkpt lat="52.0507282857" lon="-2.0421556570"><ele>253.44</ele><time>2015-08-05T10:35:46Z</time></trkpt><trkpt lat="52.0506405272" lon="-2.0422763564"><ele>253.93</ele><time>2015-08-05T10:36:02Z</time></trkpt><trkpt lat="52.0505828597" lon="-2.0423434954"><ele>252.96</ele><time>2015-08-05T10:36:13Z</time></trkpt><trkpt lat="52.0505504217" lon="-2.0423617680"><ele>252.48</ele><time>2015-08-05T10:36:16Z</time></trkpt><trkpt lat="52.0504225977" lon="-2.0424693916"><ele>250.56</ele><time>2015-08-05T10:36:33Z</time></trkpt><trkpt lat="52.0503040776" lon="-2.0425948687"><ele>251.04</ele><time>2015-08-05T10:36:46Z</time></trkpt><trkpt lat="52.0501822047" lon="-2.0427055098"><ele>250.08</ele><time>2015-08-05T10:37:00Z</time></trkpt><trkpt lat="52.0501682907" lon="-2.0427233633"><ele>250.08</ele><time>2015-08-05T10:37:06Z</time></trkpt><trkpt lat="52.0500911772" lon="-2.0428118762"><ele>249.60</ele><time>2015-08-05T10:37:14Z</time></trkpt><trkpt lat="52.0500485133" lon="-2.0428419672"><ele>248.64</ele><time>2015-08-05T10:37:19Z</time></trkpt><trkpt lat="52.0498792827" lon="-2.0430002175"><ele>247.68</ele><time>2015-08-05T10:37:36Z</time></trkpt><trkpt lat="52.0497346111" lon="-2.0430861320"><ele>247.20</ele><time>2015-08-05T10:37:53Z</time></trkpt><trkpt lat="52.0497150812" lon="-2.0431056619"><ele>246.23</ele><time>2015-08-05T10:37:55Z</time></trkpt><trkpt lat="52.0495315176" lon="-2.0433120243"><ele>245.75</ele><time>2015-08-05T10:38:14Z</time></trkpt><trkpt lat="52.0494705811" lon="-2.0433530957"><ele>244.31</ele><time>2015-08-05T10:38:21Z</time></trkpt><trkpt lat="52.0493197069" lon="-2.0434836857"><ele>242.39</ele><time>2015-08-05T10:38:37Z</time></trkpt><trkpt lat="52.0492098201" lon="-2.0435517468"><ele>241.91</ele><time>2015-08-05T10:38:50Z</time></trkpt><trkpt lat="52.0491814055" lon="-2.0435684267"><ele>241.43</ele><time>2015-08-05T10:38:53Z</time></trkpt><trkpt lat="52.0490633044" lon="-2.0436752122"><ele>241.43</ele><time>2015-08-05T10:39:06Z</time></trkpt><trkpt lat="52.0489536691" lon="-2.0438145194"><ele>240.95</ele><time>2015-08-05T10:39:19Z</time></trkpt><trkpt lat="52.0488855243" lon="-2.0439005177"><ele>239.99</ele><time>2015-08-05T10:39:28Z</time></trkpt><trkpt lat="52.0488312934" lon="-2.0439554192"><ele>239.02</ele><time>2015-08-05T10:39:35Z</time></trkpt><trkpt lat="52.0488152001" lon="-2.0439788885"><ele>239.51</ele><time>2015-08-05T10:39:37Z</time></trkpt><trkpt lat="52.0486805867" lon="-2.0441090595"><ele>238.54</ele><time>2015-08-05T10:39:53Z</time></trkpt><trkpt lat="52.0486590452" lon="-2.0441228896"><ele>237.10</ele><time>2015-08-05T10:39:56Z</time></trkpt><trkpt lat="52.0486482326" lon="-2.0441404078"><ele>233.74</ele><time>2015-08-05T10:40:06Z</time></trkpt><trkpt lat="52.0486471429" lon="-2.0441365521"><ele>235.18</ele><time>2015-08-05T10:40:09Z</time></trkpt><trkpt lat="52.0486418623" lon="-2.0441292599"><ele>236.62</ele><time>2015-08-05T10:40:39Z</time></trkpt><trkpt lat="52.0486403536" lon="-2.0441274159"><ele>234.70</ele><time>2015-08-05T10:40:46Z</time></trkpt><trkpt lat="52.0486370008" lon="-2.0441247337"><ele>235.66</ele><time>2015-08-05T10:41:09Z</time></trkpt><trkpt lat="52.0486376714" lon="-2.0441225544"><ele>236.62</ele><time>2015-08-05T10:41:41Z</time></trkpt><trkpt lat="52.0485738851" lon="-2.0440487098"><ele>236.14</ele><time>2015-08-05T10:41:53Z</time></trkpt><trkpt lat="52.0485155471" lon="-2.0439275075"><ele>234.70</ele><time>2015-08-05T10:42:03Z</time></trkpt><trkpt lat="52.0485018846" lon="-2.0438768808"><ele>234.70</ele><time>2015-08-05T10:42:06Z</time></trkpt><trkpt lat="52.0484670158" lon="-2.0437752921"><ele>237.10</ele><time>2015-08-05T10:42:12Z</time></trkpt><trkpt lat="52.0483870525" lon="-2.0435955003"><ele>238.54</ele><time>2015-08-05T10:42:26Z</time></trkpt><trkpt lat="52.0483797602" lon="-2.0435811672"><ele>238.06</ele><time>2015-08-05T10:42:27Z</time></trkpt><trkpt lat="52.0483688638" lon="-2.0435188059"><ele>239.02</ele><time>2015-08-05T10:42:31Z</time></trkpt><trkpt lat="52.0482930914" lon="-2.0433326438"><ele>237.58</ele><time>2015-08-05T10:42:45Z</time></trkpt><trkpt lat="52.0482054166" lon="-2.0431118645"><ele>237.58</ele><time>2015-08-05T10:43:00Z</time></trkpt><trkpt lat="52.0481792651" lon="-2.0430197474"><ele>237.10</ele><time>2015-08-05T10:43:07Z</time></trkpt><trkpt lat="52.0481463242" lon="-2.0429541171"><ele>237.10</ele><time>2015-08-05T10:43:12Z</time></trkpt><trkpt lat="52.0480631758" lon="-2.0427172445"><ele>236.62</ele><time>2015-08-05T10:43:29Z</time></trkpt><trkpt lat="52.0480350126" lon="-2.0426202659"><ele>236.14</ele><time>2015-08-05T10:43:36Z</time></trkpt><trkpt lat="52.0479489304" lon="-2.0423906017"><ele>234.70</ele><time>2015-08-05T10:43:52Z</time></trkpt><trkpt lat="52.0478743315" lon="-2.0421816409"><ele>235.18</ele><time>2015-08-05T10:44:06Z</time></trkpt><trkpt lat="52.0477966312" lon="-2.0419596881"><ele>235.66</ele><time>2015-08-05T10:44:22Z</time></trkpt><trkpt lat="52.0477313362" lon="-2.0417798962"><ele>235.66</ele><time>2015-08-05T10:44:35Z</time></trkpt><trkpt lat="52.0476847328" lon="-2.0416638069"><ele>235.66</ele><time>2015-08-05T10:44:44Z</time></trkpt><trkpt lat="52.0476600900" lon="-2.0416151918"><ele>236.14</ele><time>2015-08-05T10:44:48Z</time></trkpt><trkpt lat="52.0475571603" lon="-2.0413356554"><ele>236.14</ele><time>2015-08-05T10:45:06Z</time></trkpt><trkpt lat="52.0475268178" lon="-2.0412768144"><ele>235.18</ele><time>2015-08-05T10:45:11Z</time></trkpt><trkpt lat="52.0474936254" lon="-2.0411592163"><ele>234.70</ele><time>2015-08-05T10:45:18Z</time></trkpt><trkpt lat="52.0474326890" lon="-2.0410698652"><ele>234.22</ele><time>2015-08-05T10:45:31Z</time></trkpt><trkpt lat="52.0474378020" lon="-2.0410707034"><ele>233.26</ele><time>2015-08-05T10:45:52Z</time></trkpt><trkpt lat="52.0474362094" lon="-2.0410616510"><ele>234.70</ele><time>2015-08-05T10:46:12Z</time></trkpt><trkpt lat="52.0474280789" lon="-2.0410448872"><ele>233.26</ele><time>2015-08-05T10:46:33Z</time></trkpt><trkpt lat="52.0473766979" lon="-2.0410086773"><ele>235.66</ele><time>2015-08-05T10:46:41Z</time></trkpt><trkpt lat="52.0473419130" lon="-2.0410126168"><ele>232.78</ele><time>2015-08-05T10:46:46Z</time></trkpt><trkpt lat="52.0473232213" lon="-2.0410263631"><ele>231.81</ele><time>2015-08-05T10:46:49Z</time></trkpt><trkpt lat="52.0472660568" lon="-2.0410510059"><ele>232.30</ele><time>2015-08-05T10:46:55Z</time></trkpt><trkpt lat="52.0470948983" lon="-2.0410505868"><ele>230.37</ele><time>2015-08-05T10:47:12Z</time></trkpt><trkpt lat="52.0470827445" lon="-2.0410703681"><ele>230.37</ele><time>2015-08-05T10:47:14Z</time></trkpt><trkpt lat="52.0470291004" lon="-2.0411217492"><ele>230.37</ele><time>2015-08-05T10:47:24Z</time></trkpt><trkpt lat="52.0469512325" lon="-2.0412214939"><ele>228.93</ele><time>2015-08-05T10:47:35Z</time></trkpt><trkpt lat="52.0468443632" lon="-2.0413515810"><ele>228.45</ele><time>2015-08-05T10:47:48Z</time></trkpt><trkpt lat="52.0467832591" lon="-2.0414297003"><ele>227.97</ele><time>2015-08-05T10:47:57Z</time></trkpt><trkpt lat="52.0467670821" lon="-2.0414508227"><ele>227.01</ele><time>2015-08-05T10:47:59Z</time></trkpt><trkpt lat="52.0467014518" lon="-2.0415342227"><ele>226.05</ele><time>2015-08-05T10:48:12Z</time></trkpt><trkpt lat="52.0465966780" lon="-2.0416758768"><ele>225.09</ele><time>2015-08-05T10:48:26Z</time></trkpt><trkpt lat="52.0464888029" lon="-2.0417801477"><ele>224.61</ele><time>2015-08-05T10:48:40Z</time></trkpt><trkpt lat="52.0464018825" lon="-2.0418700017"><ele>223.64</ele><time>2015-08-05T10:48:52Z</time></trkpt><trkpt lat="52.0463474840" lon="-2.0419193711"><ele>223.16</ele><time>2015-08-05T10:48:58Z</time></trkpt><trkpt lat="52.0462615695" lon="-2.0420103148"><ele>221.72</ele><time>2015-08-05T10:49:12Z</time></trkpt><trkpt lat="52.0461355895" lon="-2.0420864224"><ele>220.76</ele><time>2015-08-05T10:49:27Z</time></trkpt><trkpt lat="52.0459884871" lon="-2.0421853289"><ele>219.32</ele><time>2015-08-05T10:49:42Z</time></trkpt><trkpt lat="52.0459443145" lon="-2.0422121510"><ele>219.32</ele><time>2015-08-05T10:49:48Z</time></trkpt><trkpt lat="52.0459212642" lon="-2.0422236342"><ele>217.88</ele><time>2015-08-05T10:49:51Z</time></trkpt><trkpt lat="52.0457670372" lon="-2.0423110574"><ele>215.95</ele><time>2015-08-05T10:50:08Z</time></trkpt><trkpt lat="52.0456237905" lon="-2.0424131490"><ele>214.03</ele><time>2015-08-05T10:50:24Z</time></trkpt><trkpt lat="52.0454988163" lon="-2.0425224490"><ele>212.59</ele><time>2015-08-05T10:50:38Z</time></trkpt><trkpt lat="52.0454399753" lon="-2.0425617602"><ele>213.07</ele><time>2015-08-05T10:50:51Z</time></trkpt><trkpt lat="52.0454097167" lon="-2.0425701421"><ele>211.63</ele><time>2015-08-05T10:50:54Z</time></trkpt><trkpt lat="52.0452660508" lon="-2.0427140594"><ele>208.74</ele><time>2015-08-05T10:51:09Z</time></trkpt><trkpt lat="52.0451542363" lon="-2.0428282209"><ele>208.26</ele><time>2015-08-05T10:51:24Z</time></trkpt><trkpt lat="52.0450252388" lon="-2.0429835375"><ele>206.82</ele><time>2015-08-05T10:51:39Z</time></trkpt><trkpt lat="52.0449460298" lon="-2.0430905744"><ele>205.38</ele><time>2015-08-05T10:51:50Z</time></trkpt><trkpt lat="52.0448316168" lon="-2.0432483219"><ele>203.94</ele><time>2015-08-05T10:52:05Z</time></trkpt><trkpt lat="52.0448067226" lon="-2.0432765689"><ele>203.46</ele><time>2015-08-05T10:52:14Z</time></trkpt><trkpt lat="52.0447043795" lon="-2.0433900598"><ele>199.61</ele><time>2015-08-05T10:52:25Z</time></trkpt><trkpt lat="52.0447044633" lon="-2.0433897246"><ele>200.57</ele><time>2015-08-05T10:52:26Z</time></trkpt><trkpt lat="52.0446985960" lon="-2.0433978550"><ele>202.49</ele><time>2015-08-05T10:52:30Z</time></trkpt><trkpt lat="52.0445554331" lon="-2.0435441192"><ele>200.57</ele><time>2015-08-05T10:52:46Z</time></trkpt><trkpt lat="52.0444745477" lon="-2.0435999427"><ele>199.61</ele><time>2015-08-05T10:53:03Z</time></trkpt><trkpt lat="52.0443995297" lon="-2.0436445344"><ele>195.28</ele><time>2015-08-05T10:53:15Z</time></trkpt><trkpt lat="52.0443722885" lon="-2.0436660759"><ele>196.73</ele><time>2015-08-05T10:53:19Z</time></trkpt><trkpt lat="52.0442462247" lon="-2.0437072311"><ele>196.25</ele><time>2015-08-05T10:53:37Z</time></trkpt><trkpt lat="52.0441984478" lon="-2.0437396690"><ele>192.88</ele><time>2015-08-05T10:53:43Z</time></trkpt><trkpt lat="52.0441448037" lon="-2.0437692571"><ele>192.88</ele><time>2015-08-05T10:53:49Z</time></trkpt><trkpt lat="52.0441272017" lon="-2.0437729452"><ele>193.36</ele><time>2015-08-05T10:53:54Z</time></trkpt><trkpt lat="52.0440488309" lon="-2.0436117612"><ele>194.32</ele><time>2015-08-05T10:54:01Z</time></trkpt><trkpt lat="52.0439733937" lon="-2.0434588753"><ele>197.21</ele><time>2015-08-05T10:54:07Z</time></trkpt><trkpt lat="52.0439218450" lon="-2.0433416963"><ele>200.09</ele><time>2015-08-05T10:54:17Z</time></trkpt><trkpt lat="52.0439058356" lon="-2.0433093421"><ele>201.53</ele><time>2015-08-05T10:54:21Z</time></trkpt><trkpt lat="52.0439018961" lon="-2.0433115214"><ele>201.53</ele><time>2015-08-05T10:54:24Z</time></trkpt><trkpt lat="52.0438873116" lon="-2.0432710368"><ele>200.57</ele><time>2015-08-05T10:54:26Z</time></trkpt><trkpt lat="52.0438602380" lon="-2.0431988686"><ele>202.01</ele><time>2015-08-05T10:54:32Z</time></trkpt><trkpt lat="52.0437998045" lon="-2.0431892294"><ele>204.42</ele><time>2015-08-05T10:54:45Z</time></trkpt><trkpt lat="52.0437746588" lon="-2.0431829430"><ele>203.94</ele><time>2015-08-05T10:54:56Z</time></trkpt><trkpt lat="52.0437267981" lon="-2.0432061609"><ele>203.46</ele><time>2015-08-05T10:55:01Z</time></trkpt><trkpt lat="52.0434929430" lon="-2.0433410257"><ele>201.05</ele><time>2015-08-05T10:55:19Z</time></trkpt><trkpt lat="52.0433361176" lon="-2.0433921553"><ele>200.09</ele><time>2015-08-05T10:55:34Z</time></trkpt><trkpt lat="52.0433438290" lon="-2.0433917362"><ele>200.57</ele><time>2015-08-05T10:55:46Z</time></trkpt><trkpt lat="52.0431662165" lon="-2.0435293671"><ele>197.69</ele><time>2015-08-05T10:56:03Z</time></trkpt><trkpt lat="52.0430409908" lon="-2.0436604600"><ele>194.32</ele><time>2015-08-05T10:56:12Z</time></trkpt><trkpt lat="52.0429038629" lon="-2.0438153576"><ele>191.44</ele><time>2015-08-05T10:56:24Z</time></trkpt><trkpt lat="52.0427290164" lon="-2.0438741148"><ele>188.08</ele><time>2015-08-05T10:56:37Z</time></trkpt><trkpt lat="52.0427076425" lon="-2.0438568480"><ele>186.63</ele><time>2015-08-05T10:56:48Z</time></trkpt><trkpt lat="52.0426088199" lon="-2.0439874381"><ele>183.27</ele><time>2015-08-05T10:56:57Z</time></trkpt><trkpt lat="52.0425286889" lon="-2.0441352949"><ele>180.38</ele><time>2015-08-05T10:57:05Z</time></trkpt><trkpt lat="52.0425187983" lon="-2.0441585965"><ele>180.38</ele><time>2015-08-05T10:57:06Z</time></trkpt><trkpt lat="52.0423980989" lon="-2.0444403961"><ele>176.54</ele><time>2015-08-05T10:57:19Z</time></trkpt><trkpt lat="52.0423781499" lon="-2.0444787014"><ele>175.58</ele><time>2015-08-05T10:57:21Z</time></trkpt><trkpt lat="52.0422933251" lon="-2.0446296595"><ele>174.62</ele><time>2015-08-05T10:57:29Z</time></trkpt><trkpt lat="52.0422158763" lon="-2.0448248740"><ele>172.69</ele><time>2015-08-05T10:57:44Z</time></trkpt><trkpt lat="52.0420878846" lon="-2.0449039154"><ele>171.73</ele><time>2015-08-05T10:58:00Z</time></trkpt><trkpt lat="52.0419794228" lon="-2.0449529495"><ele>168.37</ele><time>2015-08-05T10:58:14Z</time></trkpt><trkpt lat="52.0419001300" lon="-2.0450096112"><ele>167.41</ele><time>2015-08-05T10:58:24Z</time></trkpt><trkpt lat="52.0417402871" lon="-2.0451285504"><ele>165.96</ele><time>2015-08-05T10:58:44Z</time></trkpt><trkpt lat="52.0416702144" lon="-2.0451980364"><ele>165.00</ele><time>2015-08-05T10:58:53Z</time></trkpt><trkpt lat="52.0414978825" lon="-2.0453388523"><ele>164.04</ele><time>2015-08-05T10:59:14Z</time></trkpt><trkpt lat="52.0413915161" lon="-2.0454233419"><ele>162.60</ele><time>2015-08-05T10:59:32Z</time></trkpt><trkpt lat="52.0413840562" lon="-2.0454598032"><ele>163.08</ele><time>2015-08-05T11:00:01Z</time></trkpt><trkpt lat="52.0413876604" lon="-2.0454482362"><ele>162.60</ele><time>2015-08-05T11:00:20Z</time></trkpt><trkpt lat="52.0413756743" lon="-2.0454064943"><ele>162.60</ele><time>2015-08-05T11:00:40Z</time></trkpt><trkpt lat="52.0413770992" lon="-2.0454259403"><ele>162.60</ele><time>2015-08-05T11:00:59Z</time></trkpt><trkpt lat="52.0412642788" lon="-2.0455563627"><ele>160.20</ele><time>2015-08-05T11:01:15Z</time></trkpt><trkpt lat="52.0411456749" lon="-2.0456667524"><ele>158.75</ele><time>2015-08-05T11:01:31Z</time></trkpt><trkpt lat="52.0410987362" lon="-2.0457160380"><ele>158.27</ele><time>2015-08-05T11:01:39Z</time></trkpt><trkpt lat="52.0410911087" lon="-2.0457112603"><ele>161.64</ele><time>2015-08-05T11:01:47Z</time></trkpt><trkpt lat="52.0410502050" lon="-2.0457326341"><ele>158.27</ele><time>2015-08-05T11:01:56Z</time></trkpt><trkpt lat="52.0409587584" lon="-2.0458246674"><ele>157.79</ele><time>2015-08-05T11:02:06Z</time></trkpt><trkpt lat="52.0408347901" lon="-2.0459208917"><ele>156.83</ele><time>2015-08-05T11:02:24Z</time></trkpt><trkpt lat="52.0407439303" lon="-2.0460110810"><ele>154.91</ele><time>2015-08-05T11:02:38Z</time></trkpt><trkpt lat="52.0406494662" lon="-2.0461164415"><ele>153.47</ele><time>2015-08-05T11:02:53Z</time></trkpt><trkpt lat="52.0405130927" lon="-2.0462542400"><ele>152.51</ele><time>2015-08-05T11:03:09Z</time></trkpt><trkpt lat="52.0404389966" lon="-2.0463514701"><ele>150.58</ele><time>2015-08-05T11:03:22Z</time></trkpt><trkpt lat="52.0403324626" lon="-2.0464880951"><ele>149.14</ele><time>2015-08-05T11:03:38Z</time></trkpt><trkpt lat="52.0402326342" lon="-2.0466370415"><ele>148.18</ele><time>2015-08-05T11:03:57Z</time></trkpt><trkpt lat="52.0401077438" lon="-2.0468021650"><ele>146.26</ele><time>2015-08-05T11:04:17Z</time></trkpt><trkpt lat="52.0399988629" lon="-2.0469575655"><ele>145.30</ele><time>2015-08-05T11:04:38Z</time></trkpt><trkpt lat="52.0399155468" lon="-2.0470612496"><ele>142.89</ele><time>2015-08-05T11:04:48Z</time></trkpt><trkpt lat="52.0398436300" lon="-2.0471455716"><ele>142.41</ele><time>2015-08-05T11:05:05Z</time></trkpt><trkpt lat="52.0396469906" lon="-2.0473708771"><ele>140.49</ele><time>2015-08-05T11:05:24Z</time></trkpt><trkpt lat="52.0394603256" lon="-2.0475193206"><ele>140.97</ele><time>2015-08-05T11:05:44Z</time></trkpt><trkpt lat="52.0394083578" lon="-2.0475387666"><ele>139.53</ele><time>2015-08-05T11:05:48Z</time></trkpt><trkpt lat="52.0392927714" lon="-2.0475897286"><ele>138.57</ele><time>2015-08-05T11:05:58Z</time></trkpt><trkpt lat="52.0391826332" lon="-2.0476644114"><ele>136.64</ele><time>2015-08-05T11:06:13Z</time></trkpt><trkpt lat="52.0390817150" lon="-2.0477156248"><ele>135.68</ele><time>2015-08-05T11:06:34Z</time></trkpt><trkpt lat="52.0390359499" lon="-2.0477289520"><ele>134.72</ele><time>2015-08-05T11:06:55Z</time></trkpt><trkpt lat="52.0388883445" lon="-2.0478193928"><ele>132.80</ele><time>2015-08-05T11:07:13Z</time></trkpt><trkpt lat="52.0387639571" lon="-2.0477801654"><ele>131.84</ele><time>2015-08-05T11:07:31Z</time></trkpt><trkpt lat="52.0387098100" lon="-2.0478017069"><ele>131.84</ele><time>2015-08-05T11:07:46Z</time></trkpt><trkpt lat="52.0386347920" lon="-2.0478341449"><ele>130.88</ele><time>2015-08-05T11:07:53Z</time></trkpt><trkpt lat="52.0384832472" lon="-2.0478853583"><ele>130.40</ele><time>2015-08-05T11:08:08Z</time></trkpt><trkpt lat="52.0384583529" lon="-2.0478908066"><ele>128.95</ele><time>2015-08-05T11:08:12Z</time></trkpt><trkpt lat="52.0384012721" lon="-2.0479167067"><ele>128.95</ele><time>2015-08-05T11:08:17Z</time></trkpt><trkpt lat="52.0382694248" lon="-2.0479482226"><ele>128.95</ele><time>2015-08-05T11:08:34Z</time></trkpt><trkpt lat="52.0382341370" lon="-2.0479783136"><ele>127.99</ele><time>2015-08-05T11:08:38Z</time></trkpt><trkpt lat="52.0382113382" lon="-2.0479870308"><ele>128.95</ele><time>2015-08-05T11:08:40Z</time></trkpt><trkpt lat="52.0381840970" lon="-2.0479841810"><ele>127.51</ele><time>2015-08-05T11:08:44Z</time></trkpt><trkpt lat="52.0380676724" lon="-2.0480848476"><ele>127.03</ele><time>2015-08-05T11:09:00Z</time></trkpt><trkpt lat="52.0379918162" lon="-2.0481404196"><ele>126.55</ele><time>2015-08-05T11:09:15Z</time></trkpt><trkpt lat="52.0379476435" lon="-2.0482236519"><ele>125.59</ele><time>2015-08-05T11:09:29Z</time></trkpt><trkpt lat="52.0379017945" lon="-2.0482563414"><ele>125.59</ele><time>2015-08-05T11:09:50Z</time></trkpt><trkpt lat="52.0378626511" lon="-2.0482872706"><ele>125.11</ele><time>2015-08-05T11:10:03Z</time></trkpt><trkpt lat="52.0377486572" lon="-2.0484693255"><ele>124.15</ele><time>2015-08-05T11:10:19Z</time></trkpt><trkpt lat="52.0377214160" lon="-2.0485351235"><ele>123.67</ele><time>2015-08-05T11:10:24Z</time></trkpt><trkpt lat="52.0376953483" lon="-2.0485842414"><ele>123.67</ele><time>2015-08-05T11:10:27Z</time></trkpt><trkpt lat="52.0375714637" lon="-2.0487241354"><ele>122.22</ele><time>2015-08-05T11:10:42Z</time></trkpt><trkpt lat="52.0374934282" lon="-2.0488149952"><ele>122.22</ele><time>2015-08-05T11:10:51Z</time></trkpt><trkpt lat="52.0373750757" lon="-2.0488973055"><ele>121.26</ele><time>2015-08-05T11:11:02Z</time></trkpt><trkpt lat="52.0371788554" lon="-2.0490410551"><ele>119.82</ele><time>2015-08-05T11:11:21Z</time></trkpt><trkpt lat="52.0371691324" lon="-2.0490524545"><ele>118.86</ele><time>2015-08-05T11:11:22Z</time></trkpt><trkpt lat="52.0371288992" lon="-2.0490878262"><ele>119.34</ele><time>2015-08-05T11:11:26Z</time></trkpt><trkpt lat="52.0369685534" lon="-2.0491688792"><ele>118.38</ele><time>2015-08-05T11:11:43Z</time></trkpt><trkpt lat="52.0368978940" lon="-2.0491789375"><ele>117.42</ele><time>2015-08-05T11:11:50Z</time></trkpt><trkpt lat="52.0367414877" lon="-2.0492759999"><ele>115.98</ele><time>2015-08-05T11:12:05Z</time></trkpt><trkpt lat="52.0365711674" lon="-2.0493270457"><ele>115.01</ele><time>2015-08-05T11:12:23Z</time></trkpt><trkpt lat="52.0364896115" lon="-2.0493671112"><ele>113.57</ele><time>2015-08-05T11:12:30Z</time></trkpt><trkpt lat="52.0363010187" lon="-2.0494919177"><ele>113.09</ele><time>2015-08-05T11:12:44Z</time></trkpt><trkpt lat="52.0362816565" lon="-2.0495172311"><ele>112.13</ele><time>2015-08-05T11:12:46Z</time></trkpt><trkpt lat="52.0361765474" lon="-2.0495872200"><ele>111.17</ele><time>2015-08-05T11:13:03Z</time></trkpt><trkpt lat="52.0360961650" lon="-2.0495722163"><ele>110.69</ele><time>2015-08-05T11:13:23Z</time></trkpt><trkpt lat="52.0360281877" lon="-2.0496743917"><ele>108.29</ele><time>2015-08-05T11:13:43Z</time></trkpt><trkpt lat="52.0359244198" lon="-2.0497818477"><ele>107.81</ele><time>2015-08-05T11:13:55Z</time></trkpt><trkpt lat="52.0358811691" lon="-2.0498079993"><ele>107.81</ele><time>2015-08-05T11:14:00Z</time></trkpt><trkpt lat="52.0357784908" lon="-2.0498636551"><ele>106.36</ele><time>2015-08-05T11:14:11Z</time></trkpt><trkpt lat="52.0356675144" lon="-2.0499344822"><ele>106.36</ele><time>2015-08-05T11:14:25Z</time></trkpt><trkpt lat="52.0355512574" lon="-2.0500888769"><ele>105.40</ele><time>2015-08-05T11:14:40Z</time></trkpt><trkpt lat="52.0355265308" lon="-2.0501058921"><ele>105.40</ele><time>2015-08-05T11:14:43Z</time></trkpt><trkpt lat="52.0354829449" lon="-2.0501660742"><ele>104.44</ele><time>2015-08-05T11:14:49Z</time></trkpt><trkpt lat="52.0354483277" lon="-2.0502125937"><ele>104.44</ele><time>2015-08-05T11:14:54Z</time></trkpt><trkpt lat="52.0353960246" lon="-2.0502603706"><ele>103.96</ele><time>2015-08-05T11:15:00Z</time></trkpt><trkpt lat="52.0352751575" lon="-2.0503811538"><ele>103.00</ele><time>2015-08-05T11:15:14Z</time></trkpt><trkpt lat="52.0351440646" lon="-2.0504811499"><ele>103.00</ele><time>2015-08-05T11:15:29Z</time></trkpt><trkpt lat="52.0350150671" lon="-2.0505653042"><ele>102.52</ele><time>2015-08-05T11:15:43Z</time></trkpt><trkpt lat="52.0349531248" lon="-2.0506054536"><ele>101.56</ele><time>2015-08-05T11:15:51Z</time></trkpt><trkpt lat="52.0349025819" lon="-2.0506272465"><ele>101.56</ele><time>2015-08-05T11:15:56Z</time></trkpt><trkpt lat="52.0348199364" lon="-2.0506676473"><ele>101.56</ele><time>2015-08-05T11:16:11Z</time></trkpt><trkpt lat="52.0348154940" lon="-2.0506692398"><ele>100.60</ele><time>2015-08-05T11:16:31Z</time></trkpt><trkpt lat="52.0348086208" lon="-2.0506719220"><ele>101.08</ele><time>2015-08-05T11:16:34Z</time></trkpt><trkpt lat="52.0347491093" lon="-2.0507129095"><ele>100.11</ele><time>2015-08-05T11:16:40Z</time></trkpt><trkpt lat="52.0345571637" lon="-2.0507945493"><ele>99.63</ele><time>2015-08-05T11:16:59Z</time></trkpt><trkpt lat="52.0344542339" lon="-2.0508398954"><ele>99.15</ele><time>2015-08-05T11:17:10Z</time></trkpt><trkpt lat="52.0344043616" lon="-2.0508424938"><ele>99.15</ele><time>2015-08-05T11:17:23Z</time></trkpt><trkpt lat="52.0343241468" lon="-2.0508537255"><ele>99.15</ele><time>2015-08-05T11:17:35Z</time></trkpt><trkpt lat="52.0343067124" lon="-2.0508277416"><ele>99.15</ele><time>2015-08-05T11:17:43Z</time></trkpt><trkpt lat="52.0341983344" lon="-2.0507956389"><ele>97.71</ele><time>2015-08-05T11:17:53Z</time></trkpt><trkpt lat="52.0340175368" lon="-2.0507802162"><ele>95.79</ele><time>2015-08-05T11:18:08Z</time></trkpt><trkpt lat="52.0338915568" lon="-2.0507922024"><ele>95.31</ele><time>2015-08-05T11:18:20Z</time></trkpt><trkpt lat="52.0338550955" lon="-2.0508166775"><ele>95.79</ele><time>2015-08-05T11:18:26Z</time></trkpt><trkpt lat="52.0337110106" lon="-2.0509425737"><ele>94.35</ele><time>2015-08-05T11:18:40Z</time></trkpt><trkpt lat="52.0336638205" lon="-2.0509833936"><ele>93.87</ele><time>2015-08-05T11:18:52Z</time></trkpt><trkpt lat="52.0336724538" lon="-2.0509822201"><ele>94.35</ele><time>2015-08-05T11:19:21Z</time></trkpt><trkpt lat="52.0336748846" lon="-2.0509768557"><ele>95.31</ele><time>2015-08-05T11:19:54Z</time></trkpt><trkpt lat="52.0336549357" lon="-2.0509815495"><ele>94.35</ele><time>2015-08-05T11:20:07Z</time></trkpt><trkpt lat="52.0336070750" lon="-2.0510011632"><ele>93.39</ele><time>2015-08-05T11:20:19Z</time></trkpt><trkpt lat="52.0334126987" lon="-2.0512050111"><ele>91.46</ele><time>2015-08-05T11:20:36Z</time></trkpt><trkpt lat="52.0333563723" lon="-2.0513024088"><ele>91.94</ele><time>2015-08-05T11:20:41Z</time></trkpt><trkpt lat="52.0332467370" lon="-2.0514992997"><ele>88.58</ele><time>2015-08-05T11:20:57Z</time></trkpt><trkpt lat="52.0332319848" lon="-2.0514928456"><ele>89.54</ele><time>2015-08-05T11:20:59Z</time></trkpt><trkpt lat="52.0331972837" lon="-2.0514241979"><ele>90.98</ele><time>2015-08-05T11:21:05Z</time></trkpt><trkpt lat="52.0330981258" lon="-2.0511654485"><ele>91.94</ele><time>2015-08-05T11:21:23Z</time></trkpt><trkpt lat="52.0330666099" lon="-2.0511219464"><ele>91.94</ele><time>2015-08-05T11:21:42Z</time></trkpt><trkpt lat="52.0330733154" lon="-2.0511382911"><ele>91.94</ele><time>2015-08-05T11:21:45Z</time></trkpt><trkpt lat="52.0330849662" lon="-2.0512501895"><ele>90.50</ele><time>2015-08-05T11:21:53Z</time></trkpt><trkpt lat="52.0331952721" lon="-2.0515627507"><ele>89.06</ele><time>2015-08-05T11:22:12Z</time></trkpt><trkpt lat="52.0331807714" lon="-2.0516193286"><ele>89.06</ele><time>2015-08-05T11:22:15Z</time></trkpt><trkpt lat="52.0331109501" lon="-2.0519564487"><ele>88.10</ele><time>2015-08-05T11:22:30Z</time></trkpt><trkpt lat="52.0330251195" lon="-2.0520745497"><ele>81.85</ele><time>2015-08-05T11:22:39Z</time></trkpt><trkpt lat="52.0330141392" lon="-2.0520872064"><ele>88.10</ele><time>2015-08-05T11:22:40Z</time></trkpt><trkpt lat="52.0328761730" lon="-2.0522405952"><ele>86.18</ele><time>2015-08-05T11:22:53Z</time></trkpt><trkpt lat="52.0327700581" lon="-2.0523664076"><ele>84.73</ele><time>2015-08-05T11:23:05Z</time></trkpt><trkpt lat="52.0326569024" lon="-2.0524156094"><ele>83.29</ele><time>2015-08-05T11:23:17Z</time></trkpt><trkpt lat="52.0325829741" lon="-2.0524913818"><ele>84.25</ele><time>2015-08-05T11:23:22Z</time></trkpt><trkpt lat="52.0325127337" lon="-2.0525486302"><ele>82.81</ele><time>2015-08-05T11:23:30Z</time></trkpt><trkpt lat="52.0323879272" lon="-2.0527267456"><ele>81.85</ele><time>2015-08-05T11:23:44Z</time></trkpt><trkpt lat="52.0323269069" lon="-2.0527534001"><ele>81.85</ele><time>2015-08-05T11:23:55Z</time></trkpt><trkpt lat="52.0323289186" lon="-2.0527592674"><ele>81.85</ele><time>2015-08-05T11:24:14Z</time></trkpt></trkseg></trk></gpx>